createdAt,value
2019-01-12T00:00:05.508Z,30.6
2019-01-12T00:00:56.396Z,30.3
2019-01-12T00:01:45.931Z,30.1
2019-01-12T00:02:35.091Z,29.8
2019-01-12T00:03:26.621Z,29.6
2019-01-12T00:04:16.057Z,29.4
2019-01-12T00:05:05.561Z,29.2
2019-01-12T00:05:57.030Z,29
2019-01-12T00:06:47.123Z,28.8
2019-01-12T00:07:36.055Z,28.7
2019-01-12T00:08:26.658Z,28.5
2019-01-12T00:09:18.240Z,28.4
2019-01-12T00:10:05.986Z,28.2
2019-01-12T00:10:56.313Z,28.1
2019-01-12T00:11:46.917Z,28
2019-01-12T00:12:36.128Z,27.8
2019-01-12T00:13:26.265Z,27.8
2019-01-12T00:14:16.257Z,27.7
2019-01-12T00:15:06.179Z,27.6
2019-01-12T00:15:55.908Z,27.5
2019-01-12T00:34:19.329Z,32.8
2019-01-12T00:35:08.877Z,32.9
2019-01-12T00:35:59.119Z,33.1
2019-01-12T00:36:49.437Z,33.2
2019-01-12T00:37:38.698Z,33.3
2019-01-12T00:38:29.056Z,33.4
2019-01-12T00:39:18.631Z,33.4
2019-01-12T00:40:09.422Z,33.6
2019-01-12T00:40:58.951Z,33.6
2019-01-12T00:41:48.718Z,33.7
2019-01-12T00:42:39.558Z,33.8
2019-01-12T00:43:30.204Z,33.8
2019-01-12T00:44:18.601Z,33.9
2019-01-12T00:45:09.766Z,33.6
2019-01-12T00:45:59.205Z,33.1
2019-01-12T00:46:49.848Z,32.9
2019-01-12T00:47:41.268Z,32.7
2019-01-12T00:48:29.440Z,32.4
2019-01-12T00:49:20.321Z,32.1
2019-01-12T00:50:09.796Z,31.7
2019-01-12T00:51:00.183Z,31.3
2019-01-12T00:51:49.948Z,31
2019-01-12T00:52:39.468Z,30.6
2019-01-12T00:53:29.008Z,30.3
2019-01-12T00:54:20.123Z,30.1
2019-01-12T00:55:10.147Z,29.8
2019-01-12T00:56:00.475Z,29.5
2019-01-12T00:56:50.247Z,29.3
2019-01-12T00:57:40.595Z,29.1
2019-01-12T00:58:30.409Z,28.9
2019-01-12T00:59:20.783Z,28.8
2019-01-12T01:00:11.367Z,28.6
2019-01-12T01:01:00.335Z,28.4
2019-01-12T01:01:50.150Z,28.2
2019-01-12T01:02:39.664Z,28.1
2019-01-12T01:03:30.224Z,27.9
2019-01-12T01:05:09.822Z,27.7
2019-01-12T01:06:00.128Z,27.5
2019-01-12T01:06:49.610Z,27.3
2019-01-12T01:07:41.283Z,27.6
2019-01-12T01:08:30.746Z,28.6
2019-01-12T01:09:21.249Z,29.3
2019-01-12T01:10:11.302Z,29.9
2019-01-12T01:11:00.659Z,30.4
2019-01-12T01:11:50.701Z,30.9
2019-01-12T01:12:41.316Z,31.3
2019-01-12T01:13:31.714Z,31.6
2019-01-12T01:14:22.298Z,31.8
2019-01-12T01:15:12.122Z,32.1
2019-01-12T01:16:00.221Z,32.3
2019-01-12T01:16:51.419Z,32.4
2019-01-12T01:17:41.489Z,32.6
2019-01-12T01:18:31.278Z,32.8
2019-01-12T01:19:20.733Z,32.9
2019-01-12T01:20:12.166Z,33
2019-01-12T01:21:01.878Z,33.1
2019-01-12T01:21:51.678Z,33.2
2019-01-12T01:22:42.565Z,33.3
2019-01-12T01:23:32.050Z,33.4
2019-01-12T01:24:21.823Z,33.4
2019-01-12T01:25:12.849Z,33.5
2019-01-12T01:26:03.101Z,33.6
2019-01-12T01:26:53.096Z,33.3
2019-01-12T01:27:42.095Z,32.4
2019-01-12T01:28:32.675Z,30.7
2019-01-12T01:29:23.014Z,28.8
2019-01-12T01:30:12.250Z,27.4
2019-01-12T01:31:02.353Z,27.4
2019-01-12T01:31:52.363Z,27.5
2019-01-12T01:32:42.468Z,28.8
2019-01-12T01:33:37.698Z,29.7
2019-01-12T01:34:23.082Z,30.5
2019-01-12T01:35:12.630Z,31.1
2019-01-12T01:36:03.733Z,31.5
2019-01-12T01:36:53.507Z,31.8
2019-01-12T01:37:44.117Z,32.1
2019-01-12T01:38:33.130Z,32.4
2019-01-12T01:39:23.134Z,32.6
2019-01-12T01:40:12.624Z,32.8
2019-01-12T01:41:03.610Z,32.9
2019-01-12T01:41:52.535Z,33.1
2019-01-12T01:42:43.185Z,33.2
2019-01-12T01:43:33.235Z,33.3
2019-01-12T01:44:22.774Z,33.4
2019-01-12T01:45:13.647Z,33.5
2019-01-12T01:46:03.425Z,33.6
2019-01-12T01:46:53.377Z,33.7
2019-01-12T01:47:44.021Z,33.8
2019-01-12T01:48:34.589Z,33.8
2019-01-12T01:49:23.799Z,33.9
2019-01-12T01:50:14.679Z,33.9
2019-01-12T01:51:04.031Z,33.3
2019-01-12T01:51:53.769Z,33.1
2019-01-12T01:52:43.542Z,32.9
2019-01-12T01:53:33.539Z,32.6
2019-01-12T01:54:25.232Z,32.3
2019-01-12T01:55:14.256Z,31.9
2019-01-12T01:56:03.979Z,31.6
2019-01-12T01:56:53.532Z,31.3
2019-01-12T01:57:44.683Z,30.9
2019-01-12T01:58:34.744Z,30.6
2019-01-12T01:59:24.763Z,30.3
2019-01-12T02:00:14.838Z,30
2019-01-12T02:01:05.192Z,29.7
2019-01-12T02:01:54.726Z,29.4
2019-01-12T02:02:44.978Z,29.2
2019-01-12T02:03:35.616Z,29
2019-01-12T02:04:25.378Z,28.8
2019-01-12T02:05:14.596Z,28.6
2019-01-12T02:06:03.883Z,28.4
2019-01-12T02:06:55.560Z,28.2
2019-01-12T02:07:45.918Z,28.1
2019-01-12T02:08:36.001Z,27.9
2019-01-12T02:10:16.361Z,28.1
2019-01-12T02:11:05.073Z,28.9
2019-01-12T02:11:55.701Z,29.5
2019-01-12T02:12:45.738Z,30.1
2019-01-12T02:13:35.188Z,30.6
2019-01-12T02:14:26.996Z,31
2019-01-12T02:15:15.355Z,31.3
2019-01-12T02:16:05.610Z,31.6
2019-01-12T02:16:55.121Z,31.9
2019-01-12T02:17:46.093Z,32.1
2019-01-12T02:18:35.787Z,32.3
2019-01-12T02:19:25.910Z,32.5
2019-01-12T02:20:15.700Z,32.6
2019-01-12T02:21:06.237Z,32.8
2019-01-12T02:21:56.280Z,32.9
2019-01-12T02:22:46.919Z,33
2019-01-12T02:23:36.124Z,33.1
2019-01-12T02:24:26.511Z,33.2
2019-01-12T02:25:16.809Z,33.3
2019-01-12T02:26:07.135Z,33.4
2019-01-12T02:26:55.851Z,33.4
2019-01-12T02:27:46.697Z,33.5
2019-01-12T02:28:37.292Z,33.6
2019-01-12T02:29:26.790Z,33.6
2019-01-12T02:30:16.678Z,33.8
2019-01-12T02:31:07.275Z,33.8
2019-01-12T02:31:56.851Z,33.8
2019-01-12T02:32:47.464Z,33.9
2019-01-12T02:33:36.911Z,33.9
2019-01-12T02:34:26.779Z,33.4
2019-01-12T02:35:17.027Z,33.1
2019-01-12T02:36:06.734Z,32.8
2019-01-12T02:36:58.321Z,32.5
2019-01-12T02:37:47.974Z,32.1
2019-01-12T02:38:37.737Z,31.8
2019-01-12T02:39:27.886Z,31.4
2019-01-12T02:40:17.514Z,30.9
2019-01-12T02:41:06.906Z,30.6
2019-01-12T02:41:57.682Z,30.3
2019-01-12T02:42:47.489Z,29.9
2019-01-12T02:43:36.971Z,29.7
2019-01-12T02:44:28.141Z,29.5
2019-01-12T02:45:17.680Z,29.4
2019-01-12T02:46:08.338Z,29.3
2019-01-12T02:46:57.754Z,29.2
2019-01-12T02:47:47.854Z,29.1
2019-01-12T02:48:38.121Z,28.9
2019-01-12T02:49:28.786Z,28.9
2019-01-12T02:50:18.878Z,28.8
2019-01-12T02:51:07.754Z,28.4
2019-01-12T02:51:57.844Z,29.1
2019-01-12T02:52:48.158Z,29.7
2019-01-12T02:53:39.050Z,30.2
2019-01-12T02:54:28.241Z,30.6
2019-01-12T02:55:19.085Z,31
2019-01-12T02:56:08.690Z,31.3
2019-01-12T02:56:58.983Z,31.6
2019-01-12T02:57:48.677Z,31.9
2019-01-12T02:58:38.851Z,32.1
2019-01-12T02:59:29.166Z,32.3
2019-01-12T03:00:19.604Z,32.4
2019-01-12T03:01:08.796Z,32.6
2019-01-12T03:01:59.562Z,32.8
2019-01-12T03:02:49.323Z,32.9
2019-01-12T03:03:38.893Z,33
2019-01-12T03:04:28.797Z,33.1
2019-01-12T03:05:19.321Z,33.2
2019-01-12T03:06:09.493Z,33.3
2019-01-12T03:06:59.094Z,33.3
2019-01-12T03:07:48.165Z,33.4
2019-01-12T03:08:39.792Z,33.5
2019-01-12T03:09:29.254Z,33.6
2019-01-12T03:10:19.998Z,32.7
2019-01-12T03:11:09.963Z,31.6
2019-01-12T03:12:00.266Z,29.8
2019-01-12T03:12:48.702Z,28.2
2019-01-12T03:13:40.453Z,26.8
2019-01-12T03:14:29.409Z,25.3
2019-01-12T03:15:19.022Z,24.9
2019-01-12T03:16:09.586Z,25
2019-01-12T03:17:00.647Z,26.3
2019-01-12T03:17:49.626Z,27.7
2019-01-12T03:18:40.474Z,28.8
2019-01-12T03:19:30.870Z,29.7
2019-01-12T03:20:20.062Z,30.4
2019-01-12T03:21:10.738Z,30.9
2019-01-12T03:22:01.338Z,31.4
2019-01-12T03:22:50.606Z,31.7
2019-01-12T03:23:40.287Z,32
2019-01-12T03:24:30.146Z,32.3
2019-01-12T03:25:29.682Z,32.4
2019-01-12T03:26:10.481Z,32.6
2019-01-12T03:27:00.483Z,32.8
2019-01-12T03:27:50.407Z,32.9
2019-01-12T03:28:40.693Z,33
2019-01-12T03:29:30.591Z,33.1
2019-01-12T03:30:21.575Z,33.3
2019-01-12T03:31:11.714Z,33.4
2019-01-12T03:32:01.860Z,33.4
2019-01-12T03:32:51.106Z,33.6
2019-01-12T03:33:41.313Z,33.6
2019-01-12T03:34:30.960Z,33.7
2019-01-12T03:35:21.843Z,33.7
2019-01-12T03:36:11.165Z,33.8
2019-01-12T03:37:01.135Z,33.9
2019-01-12T03:37:51.540Z,33.9
2019-01-12T03:38:40.562Z,33.9
2019-01-12T03:39:31.588Z,34
2019-01-12T03:40:22.342Z,33.4
2019-01-12T03:41:12.313Z,33.1
2019-01-12T03:42:00.713Z,32.8
2019-01-12T03:42:51.597Z,32.5
2019-01-12T03:43:41.872Z,32.2
2019-01-12T03:44:32.097Z,31.8
2019-01-12T03:45:22.334Z,31.4
2019-01-12T03:46:12.152Z,31
2019-01-12T03:47:02.636Z,30.6
2019-01-12T03:47:52.514Z,30.3
2019-01-12T03:48:42.252Z,29.9
2019-01-12T03:49:32.565Z,29.8
2019-01-12T03:50:22.446Z,29.6
2019-01-12T03:51:11.074Z,29.4
2019-01-12T03:52:02.677Z,29.4
2019-01-12T03:52:53.099Z,29.3
2019-01-12T03:53:42.047Z,29.1
2019-01-12T03:54:31.756Z,28.9
2019-01-12T03:55:30.781Z,28.9
2019-01-12T03:56:12.189Z,28.4
2019-01-12T03:57:02.802Z,28.9
2019-01-12T03:57:52.877Z,29.6
2019-01-12T03:58:41.932Z,30.1
2019-01-12T03:59:32.923Z,30.5
2019-01-12T04:00:23.317Z,30.9
2019-01-12T04:01:13.136Z,31.2
2019-01-12T04:02:03.173Z,31.5
2019-01-12T04:02:53.748Z,31.8
2019-01-12T04:03:43.554Z,32
2019-01-12T04:04:33.406Z,32.1
2019-01-12T04:05:23.368Z,32.3
2019-01-12T04:06:13.948Z,32.5
2019-01-12T04:07:02.903Z,32.6
2019-01-12T04:07:53.313Z,32.8
2019-01-12T04:08:43.651Z,32.9
2019-01-12T04:09:33.089Z,33
2019-01-12T04:10:23.235Z,33.1
2019-01-12T04:11:14.075Z,33.1
2019-01-12T04:12:04.075Z,33.3
2019-01-12T04:12:54.166Z,33.3
2019-01-12T04:13:44.451Z,33.4
2019-01-12T04:14:33.413Z,33.4
2019-01-12T04:15:24.069Z,33.5
2019-01-12T04:16:13.782Z,33.6
2019-01-12T04:17:04.428Z,33.6
2019-01-12T04:17:54.547Z,33.7
2019-01-12T04:18:44.501Z,33.7
2019-01-12T04:19:34.595Z,33.8
2019-01-12T04:20:23.595Z,33.8
2019-01-12T04:21:13.030Z,33.9
2019-01-12T04:22:04.745Z,33.9
2019-01-12T04:22:55.154Z,33.9
2019-01-12T04:23:44.361Z,33.6
2019-01-12T04:24:35.250Z,33.2
2019-01-12T04:25:42.955Z,32.9
2019-01-12T04:26:14.212Z,32.4
2019-01-12T04:27:05.113Z,32.3
2019-01-12T04:27:54.367Z,31.9
2019-01-12T04:28:44.757Z,31.7
2019-01-12T04:29:34.769Z,31.5
2019-01-12T04:30:24.647Z,31.3
2019-01-12T04:31:14.479Z,31.1
2019-01-12T04:32:04.943Z,31
2019-01-12T04:32:53.982Z,30.9
2019-01-12T04:33:44.226Z,30.8
2019-01-12T04:34:35.156Z,30.2
2019-01-12T04:35:25.941Z,30.5
2019-01-12T04:36:15.226Z,30.9
2019-01-12T04:37:04.901Z,31.1
2019-01-12T04:37:55.811Z,31.4
2019-01-12T04:38:44.796Z,31.7
2019-01-12T04:39:36.241Z,31.9
2019-01-12T04:40:25.785Z,32.1
2019-01-12T04:41:15.530Z,32.3
2019-01-12T04:42:05.870Z,32.4
2019-01-12T04:42:55.426Z,32.6
2019-01-12T04:43:46.232Z,32.8
2019-01-12T04:44:35.421Z,32.9
2019-01-12T04:45:26.315Z,32.9
2019-01-12T04:46:16.730Z,31.9
2019-01-12T05:03:30.156Z,32.8
2019-01-12T05:04:19.895Z,33
2019-01-12T05:05:10.658Z,33.1
2019-01-12T05:06:44.884Z,33.2
2019-01-12T05:07:12.156Z,33.4
2019-01-12T05:08:16.809Z,33.4
2019-01-12T05:08:53.628Z,33.5
2019-01-12T05:09:25.920Z,33.6
2019-01-12T05:10:32.164Z,33.6
2019-01-12T05:11:06.619Z,33.8
2019-01-12T05:12:43.900Z,33.8
2019-01-12T05:12:55.832Z,33.9
2019-01-12T05:14:01.864Z,33.9
2019-01-12T05:14:39.794Z,33.9
2019-01-12T05:15:40.149Z,33.9
2019-01-12T05:16:31.597Z,34
2019-01-12T05:17:20.547Z,33.5
2019-01-12T05:17:56.771Z,33.2
2019-01-12T05:18:46.564Z,33
2019-01-12T05:20:20.691Z,32.6
2019-01-12T05:20:34.217Z,32.2
2019-01-12T05:21:51.842Z,32.1
2019-01-12T05:22:27.441Z,31.8
2019-01-12T05:23:17.309Z,31.7
2019-01-12T09:17:52.721Z,26
2019-01-12T09:18:42.745Z,25.9
2019-01-12T09:19:33.110Z,25.8
2019-01-12T09:20:22.810Z,25.6
2019-01-12T09:21:12.645Z,25.4
2019-01-12T09:22:02.467Z,25.3
2019-01-12T09:22:53.301Z,25.1
2019-01-12T09:23:43.425Z,25
2019-01-12T09:24:32.840Z,24.9
2019-01-12T09:25:23.505Z,24.8
2019-01-12T09:26:13.000Z,24.6
2019-01-12T09:27:03.295Z,24.6
2019-01-12T09:27:53.110Z,24.4
2019-01-12T09:28:43.473Z,24.3
2019-01-12T09:29:33.463Z,24.2
2019-01-12T09:30:22.247Z,24.1
2019-01-12T09:31:13.292Z,24
2019-01-12T09:32:02.780Z,23.9
2019-01-12T09:32:53.991Z,23.8
2019-01-12T09:33:43.532Z,23.6
2019-01-12T09:34:33.895Z,23.4
2019-01-12T09:35:23.881Z,23.3
2019-01-12T09:36:13.390Z,23.3
2019-01-12T09:37:03.219Z,23.1
2019-01-12T09:37:53.344Z,23.1
2019-01-12T09:38:42.217Z,22.9
2019-01-12T09:39:33.972Z,22.9
2019-01-12T09:40:24.877Z,22.8
2019-01-12T09:41:14.258Z,22.8
2019-01-12T09:42:04.310Z,22.8
2019-01-12T09:42:54.675Z,22.6
2019-01-12T09:43:44.147Z,22.6
2019-01-12T09:44:34.650Z,22.6
2019-01-12T09:45:24.363Z,22.5
2019-01-12T09:46:14.113Z,22.4
2019-01-12T09:47:03.667Z,22.4
2019-01-12T09:47:54.001Z,22.4
2019-01-12T09:48:44.070Z,22.4
2019-01-12T09:49:34.102Z,22.4
2019-01-12T09:50:22.615Z,22.7
2019-01-12T09:51:13.992Z,23.8
2019-01-12T09:52:04.805Z,24.9
2019-01-12T09:52:54.372Z,25.9
2019-01-12T09:53:45.197Z,26.9
2019-01-12T09:54:34.762Z,27.9
2019-01-12T09:55:23.929Z,28.6
2019-01-12T09:56:15.058Z,29.3
2019-01-12T09:57:05.632Z,29.8
2019-01-12T09:57:54.969Z,30.1
2019-01-12T09:58:45.245Z,30.4
2019-01-12T09:59:37.409Z,30.7
2019-01-12T10:00:25.054Z,30.9
2019-01-12T10:01:15.064Z,31.1
2019-01-12T10:02:06.104Z,31.3
2019-01-12T10:02:55.664Z,31.6
2019-01-12T10:03:44.479Z,31.8
2019-01-12T10:04:36.152Z,31.9
2019-01-12T10:05:24.646Z,32
2019-01-12T10:06:15.224Z,32.1
2019-01-12T10:07:05.334Z,32.3
2019-01-12T10:07:55.721Z,32.3
2019-01-12T10:08:45.106Z,32.4
2019-01-12T10:09:36.474Z,32.6
2019-01-12T10:10:27.004Z,32.6
2019-01-12T10:11:15.271Z,32.8
2019-01-12T10:12:05.911Z,32.8
2019-01-12T10:12:55.740Z,32.9
2019-01-12T10:13:45.161Z,33
2019-01-12T10:14:35.779Z,33.1
2019-01-12T10:15:26.459Z,33.1
2019-01-12T10:16:16.169Z,33.2
2019-01-12T10:17:06.681Z,33.3
2019-01-12T10:17:56.321Z,33.3
2019-01-12T10:18:45.255Z,33.3
2019-01-12T10:19:35.836Z,33.4
2019-01-12T10:20:26.952Z,33.4
2019-01-12T10:21:15.541Z,33.5
2019-01-12T10:22:06.336Z,33.5
2019-01-12T10:22:56.048Z,33.6
2019-01-12T10:23:45.835Z,33.6
2019-01-12T10:24:37.230Z,33.6
2019-01-12T10:25:27.560Z,33.7
2019-01-12T10:26:17.633Z,33.7
2019-01-12T10:27:08.527Z,33.8
2019-01-12T10:27:57.200Z,33.8
2019-01-12T10:28:47.527Z,33.8
2019-01-12T10:29:37.338Z,33.9
2019-01-12T10:30:27.107Z,33.9
2019-01-12T10:31:17.255Z,33.9
2019-01-12T10:32:07.156Z,33.9
2019-01-12T10:32:58.268Z,33.9
2019-01-12T10:33:48.312Z,34
2019-01-12T10:34:37.687Z,34
2019-01-12T10:35:27.482Z,34
2019-01-12T10:36:17.832Z,34.1
2019-01-12T10:37:06.485Z,34.1
2019-01-12T10:37:57.850Z,34.1
2019-01-12T10:38:47.960Z,34.1
2019-01-12T10:39:38.239Z,34.1
2019-01-12T10:40:27.329Z,34.2
2019-01-12T10:41:18.704Z,33.5
2019-01-12T10:42:08.099Z,33.1
2019-01-12T10:42:58.499Z,32.8
2019-01-12T10:43:47.709Z,32.5
2019-01-12T10:44:38.646Z,32.3
2019-01-12T10:45:28.634Z,32.1
2019-01-12T10:46:18.124Z,31.9
2019-01-12T10:47:08.543Z,31.6
2019-01-12T10:47:59.083Z,31.5
2019-01-12T10:48:48.590Z,31.3
2019-01-12T10:49:38.357Z,31.1
2019-01-12T10:50:28.442Z,30.4
2019-01-12T10:51:18.536Z,31.1
2019-01-12T10:52:08.536Z,31.4
2019-01-12T10:52:58.888Z,31.5
2019-01-12T10:55:15.432Z,31.9
2019-01-12T10:56:04.709Z,32.2
2019-01-12T10:56:55.378Z,32.4
2019-01-12T10:57:44.837Z,32.5
2019-01-12T10:58:34.863Z,32.7
2019-01-12T10:59:24.615Z,32.8
2019-01-12T11:00:14.223Z,32.9
2019-01-12T11:01:05.053Z,32.9
2019-01-12T11:01:55.138Z,31.9
2019-01-12T11:02:44.871Z,30.4
2019-01-12T11:03:35.203Z,28.6
2019-01-12T11:04:26.358Z,27.1
2019-01-12T11:05:15.353Z,25.6
2019-01-12T11:06:05.378Z,24.7
2019-01-12T11:06:56.048Z,24.8
2019-01-12T11:07:47.386Z,25.4
2019-01-12T11:08:35.348Z,26.9
2019-01-12T11:09:24.800Z,28.1
2019-01-12T11:10:15.465Z,29.1
2019-01-12T11:11:05.294Z,29.9
2019-01-12T11:11:55.315Z,30.5
2019-01-12T11:12:45.875Z,31
2019-01-12T11:13:35.927Z,31.3
2019-01-12T11:14:25.983Z,31.7
2019-01-12T11:15:17.472Z,31.9
2019-01-12T11:16:05.816Z,32.2
2019-01-12T11:16:55.702Z,32.4
2019-01-12T11:17:46.013Z,32.6
2019-01-12T11:18:35.564Z,32.7
2019-01-12T11:19:25.720Z,32.9
2019-01-12T11:20:16.128Z,33
2019-01-12T11:21:07.210Z,33.1
2019-01-12T11:21:56.699Z,33.2
2019-01-12T11:22:46.209Z,33.3
2019-01-12T11:23:36.524Z,33.4
2019-01-12T11:24:26.072Z,33.4
2019-01-12T11:25:17.502Z,33.5
2019-01-12T11:26:07.279Z,33.6
2019-01-12T11:26:57.097Z,33.6
2019-01-12T11:27:46.836Z,33.7
2019-01-12T11:28:36.897Z,33.8
2019-01-12T11:29:27.206Z,33.8
2019-01-12T11:30:17.076Z,33.9
2019-01-12T11:31:07.352Z,33.9
2019-01-12T11:31:56.901Z,33.9
2019-01-12T11:32:47.771Z,34
2019-01-12T11:33:36.266Z,34.1
2019-01-12T11:34:27.109Z,34.1
2019-01-12T11:35:16.888Z,34.1
2019-01-12T11:36:06.909Z,34.1
2019-01-12T11:36:56.258Z,33.5
2019-01-12T11:37:46.935Z,33.1
2019-01-12T11:38:36.075Z,32.8
2019-01-12T11:39:26.486Z,32.6
2019-01-12T11:40:17.273Z,32.3
2019-01-12T11:41:06.591Z,32.1
2019-01-12T11:41:57.813Z,31.9
2019-01-12T11:42:47.898Z,31.7
2019-01-12T11:43:37.705Z,31.5
2019-01-12T11:44:28.021Z,31.3
2019-01-12T11:45:18.365Z,31.2
2019-01-12T11:46:08.405Z,30.8
2019-01-12T11:46:58.988Z,30.6
2019-01-12T11:47:47.681Z,31.4
2019-01-12T11:48:37.983Z,31.8
2019-01-12T11:49:28.884Z,31.9
2019-01-12T11:50:18.742Z,32.1
2019-01-12T11:51:08.983Z,32.2
2019-01-12T11:51:57.985Z,32.3
2019-01-12T11:52:49.423Z,32.4
2019-01-12T11:53:38.697Z,32.6
2019-01-12T11:54:28.688Z,32.8
2019-01-12T11:55:19.305Z,32.9
2019-01-12T11:56:07.942Z,33
2019-01-12T11:56:58.897Z,33.1
2019-01-12T11:57:49.597Z,33.3
2019-01-12T11:58:40.224Z,33.4
2019-01-12T11:59:29.119Z,33.4
2019-01-12T12:00:18.880Z,33.5
2019-01-12T12:01:07.695Z,33.6
2019-01-12T12:01:58.413Z,33.7
2019-01-12T12:02:49.347Z,33.8
2019-01-12T12:03:38.364Z,33.8
2019-01-12T12:04:28.145Z,33.9
2019-01-12T12:05:20.309Z,33.9
2019-01-12T12:06:08.798Z,34
2019-01-12T12:06:58.846Z,34.1
2019-01-12T12:07:49.149Z,34.1
2019-01-12T12:08:39.369Z,33.6
2019-01-12T12:09:30.074Z,33.1
2019-01-12T12:10:20.306Z,32.8
2019-01-12T12:11:09.819Z,32.5
2019-01-12T12:12:00.694Z,32.3
2019-01-12T12:12:50.761Z,32
2019-01-12T12:13:41.074Z,31.8
2019-01-12T12:14:30.604Z,31.6
2019-01-12T12:15:19.718Z,31.4
2019-01-12T12:16:13.248Z,31.2
2019-01-12T12:17:00.487Z,31
2019-01-12T12:17:51.154Z,30.9
2019-01-12T12:18:41.421Z,30.3
2019-01-12T12:19:30.471Z,30.8
2019-01-12T12:20:21.610Z,31.4
2019-01-12T12:21:11.378Z,31.9
2019-01-12T12:22:01.426Z,32.1
2019-01-12T12:22:50.893Z,32.1
2019-01-12T12:23:39.346Z,32.3
2019-01-12T12:24:31.295Z,32.4
2019-01-12T12:25:21.082Z,32.5
2019-01-12T12:26:11.200Z,32.6
2019-01-12T12:27:01.300Z,32.8
2019-01-12T12:27:51.245Z,32.9
2019-01-12T12:28:40.222Z,33.1
2019-01-12T12:29:31.110Z,33.1
2019-01-12T12:30:21.140Z,32.1
2019-01-12T12:31:11.452Z,30.9
2019-01-12T12:32:01.399Z,28.9
2019-01-12T12:32:52.209Z,27.5
2019-01-12T12:33:40.260Z,26.8
2019-01-12T12:34:31.479Z,26.6
2019-01-12T12:35:22.334Z,27.7
2019-01-12T12:36:10.994Z,28.9
2019-01-12T12:37:01.912Z,29.8
2019-01-12T12:37:53.235Z,30.5
2019-01-12T12:38:42.255Z,31.1
2019-01-12T12:39:32.057Z,31.5
2019-01-12T12:40:20.879Z,31.8
2019-01-12T12:41:11.997Z,32.1
2019-01-12T12:42:01.905Z,32.4
2019-01-12T12:42:52.387Z,32.6
2019-01-12T12:43:42.107Z,32.8
2019-01-12T12:44:33.022Z,32.9
2019-01-12T12:45:22.272Z,33.1
2019-01-12T12:46:12.856Z,33.2
2019-01-12T12:47:02.154Z,33.3
2019-01-12T12:47:53.246Z,33.4
2019-01-12T12:48:43.297Z,33.5
2019-01-12T12:49:32.731Z,33.6
2019-01-12T12:50:21.991Z,33.6
2019-01-12T12:51:12.306Z,33.7
2019-01-12T12:52:02.763Z,33.8
2019-01-12T12:52:52.431Z,33.8
2019-01-12T12:53:44.200Z,33.9
2019-01-12T12:54:32.591Z,33.9
2019-01-12T12:55:22.921Z,34
2019-01-12T12:56:13.768Z,34.1
2019-01-12T12:57:01.615Z,34.1
2019-01-12T12:57:53.378Z,33.5
2019-01-12T12:58:43.157Z,33.1
2019-01-12T12:59:33.026Z,32.8
2019-01-12T13:00:23.041Z,32.5
2019-01-12T13:01:13.553Z,32.3
2019-01-12T13:02:04.215Z,31.9
2019-01-12T13:02:53.950Z,31.8
2019-01-12T13:03:43.781Z,31.5
2019-01-12T13:04:34.246Z,31.3
2019-01-12T13:05:23.033Z,31
2019-01-12T13:06:13.350Z,30.8
2019-01-12T13:07:03.765Z,31.5
2019-01-12T13:07:54.572Z,32
2019-01-12T13:08:50.960Z,32.1
2019-01-12T13:09:33.925Z,32.3
2019-01-12T13:10:26.311Z,32.3
2019-01-12T13:11:13.470Z,32.4
2019-01-12T13:12:04.318Z,32.6
2019-01-12T13:12:54.447Z,32.7
2019-01-12T13:13:44.160Z,32.9
2019-01-12T13:14:34.802Z,33
2019-01-12T13:15:24.362Z,33.1
2019-01-12T13:16:14.627Z,33.3
2019-01-12T13:17:04.138Z,33.3
2019-01-12T13:17:53.627Z,33.4
2019-01-12T13:18:44.789Z,33.5
2019-01-12T13:19:34.077Z,33.6
2019-01-12T13:20:26.392Z,33.7
2019-01-12T13:21:14.994Z,33.8
2019-01-12T13:22:05.020Z,33.8
2019-01-12T13:22:55.894Z,33.9
2019-01-12T13:23:45.432Z,33.9
2019-01-12T13:24:35.215Z,34
2019-01-12T13:25:25.037Z,34
2019-01-12T13:26:15.367Z,33.3
2019-01-12T13:27:06.001Z,32.9
2019-01-12T13:27:54.869Z,32.6
2019-01-12T13:28:44.694Z,32.4
2019-01-12T13:29:34.961Z,32.1
2019-01-12T13:30:25.881Z,31.9
2019-01-12T13:31:14.819Z,31.6
2019-01-12T13:32:05.766Z,31.4
2019-01-12T13:32:54.792Z,31.1
2019-01-12T13:33:44.831Z,31
2019-01-12T13:34:35.898Z,31.7
2019-01-12T13:35:25.758Z,32.1
2019-01-12T13:36:15.718Z,32.2
2019-01-12T13:37:07.566Z,32.3
2019-01-12T13:37:56.708Z,32.4
2019-01-12T13:38:45.333Z,32.6
2019-01-12T13:39:41.578Z,32.7
2019-01-12T13:40:27.823Z,32.8
2019-01-12T13:41:16.728Z,32.9
2019-01-12T13:42:05.364Z,33.1
2019-01-12T13:42:55.950Z,32.9
2019-01-12T13:43:46.503Z,32.7
2019-01-12T13:44:36.309Z,32.5
2019-01-12T13:45:27.175Z,32.3
2019-01-12T13:46:18.063Z,32.1
2019-01-12T13:47:07.023Z,31.9
2019-01-12T13:47:57.390Z,31.8
2019-01-12T13:48:47.242Z,31.6
2019-01-12T13:49:36.915Z,31.4
2019-01-12T13:50:25.960Z,31.3
2019-01-12T13:51:17.306Z,31.1
2019-01-12T13:52:07.140Z,30.9
2019-01-12T13:52:58.022Z,30.8
2019-01-12T13:53:46.167Z,30.6
2019-01-12T13:54:37.996Z,30.4
2019-01-12T13:55:27.198Z,30.3
2019-01-12T13:56:16.530Z,30.1
2019-01-12T13:57:07.697Z,29.9
2019-01-12T13:57:58.403Z,29.8
2019-01-12T13:58:48.107Z,29.7
2019-01-12T13:59:37.629Z,29.5
2019-01-12T14:00:26.907Z,29.4
2019-01-12T14:01:17.997Z,29.2
2019-01-12T14:02:08.075Z,29.1
2019-01-12T14:02:57.761Z,28.9
2019-01-12T14:03:47.947Z,28.8
2019-01-12T14:04:37.694Z,28.6
2019-01-12T14:05:28.616Z,28.4
2019-01-12T14:06:18.598Z,28.3
2019-01-12T14:07:09.981Z,28.1
2019-01-12T14:08:05.949Z,27.9
2019-01-12T14:08:47.939Z,27.8
2019-01-12T14:09:51.244Z,27.6
2019-01-12T14:10:28.136Z,27.4
2019-01-12T14:11:17.682Z,27.3
2019-01-12T14:12:07.229Z,27.1
2019-01-12T14:12:57.848Z,27
2019-01-12T14:13:48.787Z,26.9
2019-01-12T14:14:38.719Z,26.8
2019-01-12T14:15:27.947Z,26.6
2019-01-12T14:16:18.154Z,26.4
2019-01-12T14:17:09.116Z,26.3
2019-01-12T14:17:59.174Z,26.1
2019-01-12T14:18:48.986Z,26
2019-01-12T14:19:39.534Z,25.8
2019-01-12T14:20:29.058Z,25.7
2019-01-12T14:21:19.148Z,25.6
2019-01-12T14:22:09.202Z,25.4
2019-01-12T14:22:58.923Z,25.4
2019-01-12T14:23:49.258Z,25.3
2019-01-12T14:24:39.643Z,25.1
2019-01-12T14:25:30.929Z,25
2019-01-12T14:26:18.881Z,24.9
2019-01-12T14:27:09.214Z,24.8
2019-01-12T14:28:03.960Z,24.7
2019-01-12T14:28:48.253Z,24.6
2019-01-12T14:29:39.386Z,24.6
2019-01-12T14:30:29.986Z,24.4
2019-01-12T14:31:19.788Z,24.3
2019-01-12T14:32:10.375Z,24.3
2019-01-12T14:33:00.234Z,24.3
2019-01-12T14:33:49.990Z,24.1
2019-01-12T14:34:40.022Z,24.1
2019-01-12T14:35:29.855Z,24
2019-01-12T14:36:19.922Z,23.9
2019-01-12T14:37:09.902Z,23.8
2019-01-12T14:38:00.270Z,23.8
2019-01-12T14:38:49.840Z,23.8
2019-01-12T14:39:40.093Z,23.7
2019-01-12T14:40:31.007Z,23.6
2019-01-12T14:41:20.090Z,23.6
2019-01-12T14:42:10.522Z,23.4
2019-01-12T14:43:00.860Z,23.4
2019-01-12T14:43:50.917Z,23.4
2019-01-12T14:44:39.707Z,23.4
2019-01-12T14:45:30.179Z,23.4
2019-01-12T14:46:20.265Z,23.3
2019-01-12T14:47:10.857Z,23.2
2019-01-12T14:48:00.186Z,23.2
2019-01-12T14:48:50.737Z,23.1
2019-01-12T14:49:41.333Z,23.1
2019-01-12T14:50:30.549Z,23.1
2019-01-12T14:51:20.981Z,23.1
2019-01-12T14:52:10.486Z,23
2019-01-12T14:53:00.447Z,23
2019-01-12T14:53:51.344Z,23
2019-01-12T14:54:41.944Z,22.9
2019-01-12T14:55:31.471Z,22.9
2019-01-12T14:56:20.486Z,22.9
2019-01-12T14:57:11.569Z,22.9
2019-01-12T14:58:10.096Z,22.8
2019-01-12T14:58:51.582Z,22.8
2019-01-12T14:59:40.858Z,22.8
2019-01-12T15:00:31.492Z,22.8
2019-01-12T15:01:22.500Z,22.8
2019-01-12T15:02:10.952Z,22.7
2019-01-12T15:03:01.516Z,22.7
2019-01-12T15:03:52.476Z,22.7
2019-01-12T15:04:42.348Z,22.6
2019-01-12T15:05:33.226Z,22.6
2019-01-12T15:06:22.362Z,22.6
2019-01-12T15:07:12.042Z,22.6
2019-01-12T15:08:02.343Z,22.5
2019-01-12T15:08:52.366Z,22.5
2019-01-12T15:09:42.680Z,22.5
2019-01-12T15:10:31.261Z,22.4
2019-01-12T15:11:21.720Z,22.4
2019-01-12T15:12:13.123Z,22.4
2019-01-12T15:13:02.935Z,22.4
2019-01-12T15:13:53.029Z,22.3
2019-01-12T15:14:43.571Z,22.3
2019-01-12T15:15:32.803Z,22.3
2019-01-12T15:16:23.123Z,22.2
2019-01-12T15:17:27.557Z,22.3
2019-01-12T15:18:02.694Z,26.6
2019-01-12T15:18:53.567Z,28
2019-01-12T15:19:43.060Z,29.5
2019-01-12T15:20:33.151Z,30.6
2019-01-12T15:21:22.354Z,31.3
2019-01-12T15:22:13.813Z,31.6
2019-01-12T15:23:03.595Z,32.2
2019-01-12T15:23:53.136Z,33.4
2019-01-12T15:24:43.971Z,34.4
2019-01-12T15:25:33.774Z,34.7
2019-01-12T15:26:22.761Z,34.9
2019-01-12T15:27:13.411Z,35.1
2019-01-12T15:28:11.165Z,35.5
2019-01-12T15:28:53.774Z,35.9
2019-01-12T15:29:43.567Z,36.1
2019-01-12T15:30:33.853Z,36.3
2019-01-12T15:31:26.478Z,36.6
2019-01-12T15:32:14.463Z,36.7
2019-01-12T15:33:03.997Z,36.8
2019-01-12T15:33:53.058Z,37
2019-01-12T15:34:44.091Z,37.1
2019-01-12T15:35:33.406Z,37.2
2019-01-12T15:36:23.992Z,37.3
2019-01-12T15:37:14.518Z,37.3
2019-01-12T15:38:04.655Z,37.3
2019-01-12T15:38:54.667Z,37.3
2019-01-12T15:39:44.695Z,37.3